Forside
METAR-TAF:

METAR-TAF

Lufthavne :

Chicago Executive Airport

Wheeling / Prospect Heights, Illinois, USA

Breddekreds: 42-07-15N, længdekreds: 087-54-17W, højde: 197 m

Aktuelle vejr

Denne rapport blev lavet for 48 minutter siden, kl. 06:52 UTC
Vind 3 kt fra nordøst
Temperatur 8°C
Fugtighed 71%
Tryk 1021 hPa
Sigt: 16.1 km
skyfri

METAR: KPWK 210652Z AUTO 05003KT 10SM CLR 08/03 A3016 RMK AO2 SLP216 T00830033

Tid: 02:40 (07:40 UTC)


TAF: fraværende

Vejrobservationer og prognoser fra mere end 4000 lufthavne (METAR og TAF).

De gule og røde prikker repræsenterer de meteorologiske stationer.

Flyt musen over at se navnet på stationen.

Så klik over at se vejr observationer og prognoser.

At skifte det kort: Klik på de grønne knapper med et sort kors for at zoome ind; på den grønne knap med en bindestreg for at zoome ud; eller på de grønne pile for tilstødende kort.


METAR-TAF: